Time;durP1;ratioP1;P1;durP2;ratioP2;P2;SDS_P1;SDS_P2;PMS_P1;PMS_P2;Temp;Humidity;BMP_temperature;BMP_pressure;BME280_temperature;BME280_humidity;BME280_pressure;Samples;Min_cycle;Max_cycle;Signal;HPM_P1;HPM_P2
2022/05/12 00:01:20;;;;;;;6.15;1.60;;;;;;;18.25;49.03;101285.38;5008306;28;20026;-61
2022/05/12 00:03:45;;;;;;;5.40;1.58;;;;;;;18.31;48.73;101295.44;5012573;28;20050;-60
2022/05/12 00:06:10;;;;;;;3.60;1.40;;;;;;;18.26;48.71;101298.28;5009671;28;20025;-61
2022/05/12 00:08:36;;;;;;;5.20;1.73;;;;;;;18.19;48.89;101306.19;5012497;28;20037;-61
2022/05/12 00:11:01;;;;;;;4.45;1.25;;;;;;;18.12;48.88;101306.56;5010432;28;20025;-61
2022/05/12 00:13:27;;;;;;;4.57;1.30;;;;;;;18.12;49.23;101300.94;5012936;28;20071;-61
2022/05/12 00:15:57;;;;;;;7.22;1.73;;;;;;;18.06;48.94;101304.06;5024056;28;20484;-61
2022/05/12 00:18:22;;;;;;;6.03;1.63;;;;;;;18.08;48.65;101302.66;5009464;28;20145;-62
2022/05/12 00:20:47;;;;;;;8.07;1.77;;;;;;;17.99;48.99;101306.34;5011462;28;20057;-61
2022/05/12 00:23:17;;;;;;;7.72;1.60;;;;;;;18.05;48.95;101322.06;5011730;28;20049;-61
2022/05/12 00:25:45;;;;;;;4.75;1.70;;;;;;;17.98;49.29;101315.91;5011857;28;20036;-61
2022/05/12 00:28:11;;;;;;;5.40;1.77;;;;;;;17.86;49.31;101316.28;5012552;28;20066;-61
2022/05/12 00:30:38;;;;;;;4.93;2.03;;;;;;;17.70;49.81;101318.31;5011478;28;20057;-61
2022/05/12 00:33:05;;;;;;;5.30;2.03;;;;;;;17.67;49.78;101318.88;5009454;28;20037;-61
2022/05/12 00:35:30;;;;;;;5.03;1.60;;;;;;;17.64;49.79;101320.31;5012657;28;20136;-61
2022/05/12 00:37:55;;;;;;;3.65;1.48;;;;;;;17.66;49.94;101326.47;5011523;28;20389;-61
2022/05/12 00:40:21;;;;;;;5.05;1.60;;;;;;;17.62;49.94;101333.78;5011797;28;20052;-61
2022/05/12 00:42:58;;;;;;;5.50;1.48;;;;;;;17.74;49.81;101338.22;5012443;28;20057;-61
2022/05/12 00:45:26;;;;;;;4.65;1.60;;;;;;;17.60;49.78;101340.81;5012255;28;20030;-61
2022/05/12 00:47:52;;;;;;;6.53;1.63;;;;;;;17.55;50.07;101336.06;5009476;28;20030;-61
2022/05/12 00:50:20;;;;;;;9.13;1.70;;;;;;;17.43;50.42;101339.22;5007454;28;20030;-61
2022/05/12 00:52:45;;;;;;;4.28;1.40;;;;;;;17.47;50.26;101335.84;5008216;28;20029;-61
2022/05/12 00:55:24;;;;;;;4.22;1.70;;;;;;;17.48;50.31;101338.34;5010496;28;20450;-61
2022/05/12 00:57:52;;;;;;;3.40;1.60;;;;;;;17.42;50.50;101350.75;5008741;28;20061;-61
2022/05/12 01:00:19;;;;;;;3.60;1.38;;;;;;;17.40;50.27;101348.19;5008572;28;20428;-61
2022/05/12 01:02:47;;;;;;;5.03;1.92;;;;;;;17.32;50.60;101351.59;5011645;28;20025;-61
2022/05/12 01:05:14;;;;;;;4.32;1.63;;;;;;;17.28;50.77;101350.50;5027759;28;20033;-61
2022/05/12 01:07:40;;;;;;;4.22;1.60;;;;;;;17.21;50.95;101352.75;5023578;28;20034;-61
2022/05/12 01:10:07;;;;;;;3.90;1.58;;;;;;;17.12;51.04;101358.13;5012042;28;20558;-61
2022/05/12 01:12:32;;;;;;;5.32;1.55;;;;;;;17.11;51.09;101355.63;5011785;28;20397;-61
2022/05/12 01:14:58;;;;;;;6.35;1.75;;;;;;;17.08;51.35;101358.97;5009296;28;20022;-61
2022/05/12 01:17:24;;;;;;;5.65;1.65;;;;;;;17.15;51.12;101367.94;5012066;28;20488;-61
2022/05/12 01:19:51;;;;;;;4.93;1.55;;;;;;;17.02;51.35;101368.56;5011789;28;20034;-61
2022/05/12 01:22:39;;;;;;;2.85;1.52;;;;;;;17.15;50.73;101368.78;5008942;28;20036;-62
2022/05/12 01:25:14;;;;;;;7.03;2.10;;;;;;;17.09;51.11;101363.47;5010301;28;20189;-61
2022/05/12 01:27:42;;;;;;;6.68;1.80;;;;;;;17.06;51.42;101375.28;5012066;28;20052;-61
2022/05/12 01:30:09;;;;;;;5.57;1.85;;;;;;;16.87;52.44;101375.84;5011193;28;20033;-61
2022/05/12 01:32:35;;;;;;;5.22;1.98;;;;;;;16.86;52.39;101385.41;5009825;28;20397;-61
2022/05/12 01:35:00;;;;;;;5.65;1.65;;;;;;;16.89;52.31;101382.00;5011503;28;20129;-61
2022/05/12 01:37:26;;;;;;;6.57;1.98;;;;;;;16.78;52.78;101385.97;5011148;28;20034;-62
2022/05/12 01:39:51;;;;;;;9.25;2.05;;;;;;;16.78;52.97;101390.72;5015802;28;20469;-61
2022/05/12 01:42:16;;;;;;;11.63;2.30;;;;;;;16.82;52.90;101392.69;5017129;28;20069;-61
2022/05/12 01:44:42;;;;;;;7.55;2.08;;;;;;;16.82;52.95;101397.44;5015100;28;20066;-61
2022/05/12 01:47:09;;;;;;;9.75;2.15;;;;;;;16.78;53.15;101407.53;5015763;28;20038;-61
2022/05/12 01:49:34;;;;;;;5.85;2.20;;;;;;;16.73;53.19;101405.56;5012757;28;20037;-61
2022/05/12 01:52:01;;;;;;;7.93;2.10;;;;;;;16.68;53.25;101399.94;5013495;28;20038;-61
2022/05/12 01:54:27;;;;;;;7.40;2.10;;;;;;;16.66;53.30;101394.63;5013923;28;20473;-61
2022/05/12 01:56:53;;;;;;;8.77;2.42;;;;;;;16.61;53.48;101408.63;5025594;28;20045;-61
2022/05/12 01:59:19;;;;;;;8.40;2.60;;;;;;;16.62;53.48;101409.47;5035345;28;20021;-61
2022/05/12 02:01:47;;;;;;;6.95;2.38;;;;;;;16.58;53.44;101411.16;5019573;28;20354;-61
2022/05/12 02:04:12;;;;;;;9.40;2.40;;;;;;;16.59;53.45;101422.09;5014524;28;20068;-61
2022/05/12 02:06:38;;;;;;;9.23;2.67;;;;;;;16.58;53.48;101426.00;5013515;28;20120;-61
2022/05/12 02:09:05;;;;;;;7.07;2.35;;;;;;;16.58;53.30;101426.00;5015210;28;20057;-61
2022/05/12 02:11:30;;;;;;;9.38;2.45;;;;;;;16.53;53.37;101431.59;5023837;28;20492;-61
2022/05/12 02:13:55;;;;;;;9.40;2.40;;;;;;;16.52;53.37;101434.69;5034845;28;20029;-61
2022/05/12 02:16:22;;;;;;;9.63;2.35;;;;;;;16.44;53.85;101436.94;5034780;28;20029;-61
2022/05/12 02:18:48;;;;;;;13.18;2.63;;;;;;;16.35;53.85;101440.56;5034059;28;20034;-61
2022/05/12 02:21:13;;;;;;;6.50;2.40;;;;;;;16.39;53.80;101439.72;5029996;28;20032;-61
2022/05/12 02:23:38;;;;;;;8.48;2.28;;;;;;;16.31;53.94;101448.69;5014994;28;20053;-61
2022/05/12 02:26:04;;;;;;;9.75;2.80;;;;;;;16.34;53.66;101452.88;5014382;28;20418;-61
2022/05/12 02:28:29;;;;;;;7.80;2.40;;;;;;;16.37;53.58;101446.72;5013282;28;20034;-60
2022/05/12 02:30:54;;;;;;;7.75;3.03;;;;;;;16.20;54.25;101452.56;5014417;28;20045;-61
2022/05/12 02:33:20;;;;;;;9.57;2.45;;;;;;;16.17;53.66;101453.13;5012899;28;20049;-61
2022/05/12 02:35:45;;;;;;;7.30;2.03;;;;;;;16.18;54.08;101460.41;5014423;28;20120;-60
2022/05/12 02:38:12;;;;;;;7.53;2.13;;;;;;;16.09;54.36;101468.50;5012805;28;20053;-60
2022/05/12 02:40:37;;;;;;;10.05;2.50;;;;;;;16.14;54.17;101460.09;5013733;28;20478;-60
2022/05/12 02:43:23;;;;;;;8.20;2.25;;;;;;;16.01;54.48;101468.19;5013322;28;20081;-60
2022/05/12 02:45:49;;;;;;;8.60;2.45;;;;;;;16.02;54.25;101476.31;5008028;28;20049;-60
2022/05/12 02:48:14;;;;;;;11.43;2.90;;;;;;;16.12;54.12;101470.75;5013066;28;20029;-60
2022/05/12 02:50:39;;;;;;;8.60;3.20;;;;;;;16.05;54.24;101472.97;5012603;28;20461;-60
2022/05/12 02:53:05;;;;;;;6.85;2.50;;;;;;;16.02;54.12;101478.28;5013566;28;20026;-60
2022/05/12 02:55:30;;;;;;;9.85;2.88;;;;;;;16.08;54.44;101482.78;5014046;28;20026;-61
2022/05/12 02:57:55;;;;;;;8.88;2.58;;;;;;;15.98;54.48;101477.16;5018193;28;20757;-60
2022/05/12 03:00:21;;;;;;;9.07;2.70;;;;;;;15.93;54.39;101487.22;5028811;28;20033;-60
2022/05/12 03:02:46;;;;;;;8.13;2.55;;;;;;;16.01;54.39;101474.63;5014393;28;20038;-60
2022/05/12 03:05:12;;;;;;;7.45;2.70;;;;;;;16.01;54.46;101476.59;5013928;28;20513;-60
2022/05/12 03:07:38;;;;;;;8.48;2.75;;;;;;;15.96;54.69;101483.03;5012597;28;20469;-60
2022/05/12 03:10:03;;;;;;;11.80;3.30;;;;;;;15.90;55.05;101482.16;5013960;28;20029;-60
2022/05/12 03:12:30;;;;;;;9.25;3.45;;;;;;;15.78;55.18;101483.50;5014029;28;20114;-60
2022/05/12 03:14:55;;;;;;;8.55;2.78;;;;;;;15.75;55.25;101487.69;5013159;28;20026;-60
2022/05/12 03:17:20;;;;;;;10.48;3.75;;;;;;;15.69;55.28;101489.63;5014045;28;20044;-60
2022/05/12 03:19:46;;;;;;;8.68;3.95;;;;;;;15.63;55.70;101493.47;5013253;28;20041;-61
2022/05/12 03:22:12;;;;;;;11.48;3.67;;;;;;;15.56;56.22;101494.81;5011234;28;20062;-61
2022/05/12 03:24:38;;;;;;;14.90;4.80;;;;;;;15.43;56.71;101494.19;5010512;28;20121;-61
2022/05/12 03:27:03;;;;;;;11.68;4.15;;;;;;;15.64;55.98;101491.50;5010252;28;20100;-61
2022/05/12 03:29:29;;;;;;;10.35;4.50;;;;;;;15.59;56.39;101491.47;5009650;28;20026;-61
2022/05/12 03:31:54;;;;;;;11.80;4.47;;;;;;;15.60;56.41;101495.94;5012232;28;20064;-61
2022/05/12 03:34:19;;;;;;;14.20;4.63;;;;;;;15.51;56.51;101492.84;5028364;28;20519;-61
2022/05/12 03:36:45;;;;;;;11.32;4.90;;;;;;;15.44;56.72;101504.28;5011017;28;20034;-61
2022/05/12 03:39:10;;;;;;;13.75;5.10;;;;;;;15.49;56.67;101513.81;5011467;28;20473;-61
2022/05/12 03:41:35;;;;;;;12.05;4.93;;;;;;;15.47;56.84;101517.69;5011300;28;20026;-59
2022/05/12 03:46:44;;;;;;;13.40;5.80;;;;;;;15.43;57.25;101515.72;4993903;28;20065;-61
2022/05/12 03:49:10;;;;;;;15.18;5.88;;;;;;;15.34;57.28;101525.75;5008938;28;20034;-61
2022/05/12 03:51:35;;;;;;;15.43;5.97;;;;;;;15.34;57.48;101517.34;5011755;28;20403;-60
2022/05/12 03:54:01;;;;;;;16.55;6.20;;;;;;;15.39;57.48;101529.41;5012481;28;20034;-61
2022/05/12 03:56:27;;;;;;;14.02;6.05;;;;;;;15.25;57.64;101532.91;5010668;28;20049;-61
2022/05/12 03:58:52;;;;;;;13.55;6.35;;;;;;;15.22;57.98;101539.91;5013016;28;20045;-60
2022/05/12 04:01:17;;;;;;;14.38;6.25;;;;;;;15.22;57.92;101537.97;5017555;28;20025;-60
2022/05/12 04:03:45;;;;;;;15.60;6.75;;;;;;;15.18;58.05;101536.81;5010543;28;20047;-61
2022/05/12 04:06:11;;;;;;;15.77;7.30;;;;;;;15.25;58.41;101544.09;5013005;28;20057;-60
2022/05/12 04:08:36;;;;;;;17.08;7.53;;;;;;;15.22;58.63;101543.56;5012526;28;20445;-60
2022/05/12 04:11:01;;;;;;;17.40;7.32;;;;;;;15.19;58.52;101543.25;5011115;28;20026;-61
2022/05/12 04:13:27;;;;;;;19.15;8.25;;;;;;;15.16;58.65;101549.34;5011051;28;20028;-61
2022/05/12 04:15:52;;;;;;;15.60;7.68;;;;;;;15.20;58.64;101554.16;5011751;28;20363;-61
2022/05/12 04:18:18;;;;;;;25.42;8.80;;;;;;;15.28;58.50;101563.16;5011117;28;20037;-60
2022/05/12 04:20:43;;;;;;;19.27;8.73;;;;;;;15.16;58.78;101554.94;5012216;28;20030;-60
2022/05/12 04:23:09;;;;;;;20.13;8.68;;;;;;;15.15;58.82;101561.66;5012106;28;20068;-59
2022/05/12 04:25:34;;;;;;;21.77;9.45;;;;;;;15.04;59.33;101559.88;5011767;28;20030;-60
2022/05/12 04:28:01;;;;;;;19.85;10.07;;;;;;;15.05;59.61;101570.81;5012298;28;20030;-60
2022/05/12 04:30:27;;;;;;;18.88;9.43;;;;;;;15.16;59.38;101580.13;5010585;28;20462;-60
2022/05/12 04:32:53;;;;;;;22.67;10.55;;;;;;;15.12;59.60;101568.63;5011587;28;20049;-60
2022/05/12 04:35:20;;;;;;;24.00;10.45;;;;;;;15.16;59.49;101577.31;5012268;28;20108;-60
2022/05/12 04:37:49;;;;;;;24.75;10.70;;;;;;;15.00;60.24;101584.72;5012089;28;20022;-60
2022/05/12 04:40:24;;;;;;;22.88;10.77;;;;;;;15.10;59.99;101589.59;5009660;28;20477;-60
2022/05/12 04:42:51;;;;;;;17.65;9.85;;;;;;;15.12;60.13;101587.34;5009523;28;20588;-60
2022/05/12 04:45:21;;;;;;;18.63;10.77;;;;;;;15.08;60.31;101594.59;5010200;28;20029;-60
2022/05/12 04:47:47;;;;;;;23.10;10.52;;;;;;;15.11;60.54;101594.91;5010329;28;20064;-61
2022/05/12 04:50:16;;;;;;;23.63;11.55;;;;;;;15.12;60.45;101588.19;5011413;28;20033;-60
2022/05/12 04:52:41;;;;;;;26.10;11.27;;;;;;;15.15;60.50;101582.06;5010645;28;20491;-61
2022/05/12 04:55:07;;;;;;;24.15;11.85;;;;;;;15.13;60.57;101586.22;5012055;28;20026;-61
2022/05/12 04:57:41;;;;;;;22.42;11.88;;;;;;;15.24;60.21;101590.81;5009256;28;20069;-61
2022/05/12 05:00:13;;;;;;;22.30;12.60;;;;;;;15.12;61.18;101590.16;5009821;28;20433;-60
2022/05/12 05:02:39;;;;;;;21.77;12.48;;;;;;;15.23;60.87;101597.53;5012880;28;20044;-61
2022/05/12 05:05:04;;;;;;;21.88;12.63;;;;;;;15.18;61.14;101603.91;5020040;28;20037;-60
2022/05/12 05:07:30;;;;;;;28.80;12.60;;;;;;;15.21;61.12;101608.16;5014606;28;20033;-61
2022/05/12 05:09:58;;;;;;;25.38;13.60;;;;;;;15.20;61.31;101610.06;5009105;28;20065;-61
2022/05/12 05:12:24;;;;;;;26.02;13.63;;;;;;;15.25;61.25;101622.41;4997347;28;20045;-60
2022/05/12 05:14:51;;;;;;;28.20;14.60;;;;;;;15.15;61.74;101624.03;5003448;28;20030;-61
2022/05/12 05:17:19;;;;;;;26.02;14.07;;;;;;;15.27;61.18;101629.44;5008913;28;20030;-61
2022/05/12 05:19:47;;;;;;;25.17;14.15;;;;;;;15.28;61.63;101631.13;5010519;28;20108;-61
2022/05/12 05:22:13;;;;;;;22.75;13.65;;;;;;;15.29;61.61;101627.25;5006299;28;20488;-61
2022/05/12 05:24:38;;;;;;;26.60;13.93;;;;;;;15.34;61.79;101629.22;5010875;28;20149;-61
2022/05/12 05:27:03;;;;;;;29.75;15.15;;;;;;;15.28;61.96;101635.88;5008799;28;20026;-60
2022/05/12 05:29:29;;;;;;;26.67;14.75;;;;;;;15.33;61.94;101634.00;5009036;28;20034;-60
2022/05/12 05:31:57;;;;;;;25.15;14.43;;;;;;;15.37;62.09;101645.50;5011320;28;20429;-60
2022/05/12 05:34:23;;;;;;;26.00;14.98;;;;;;;15.38;62.12;101639.63;5011293;28;20133;-60
2022/05/12 05:36:49;;;;;;;29.02;14.93;;;;;;;15.47;62.07;101638.00;5028233;28;20025;-61
2022/05/12 05:39:19;;;;;;;28.02;14.90;;;;;;;15.43;62.14;101656.44;5015149;28;20037;-61
2022/05/12 05:41:45;;;;;;;27.55;15.80;;;;;;;15.51;62.07;101663.50;5007877;28;20033;-61
2022/05/12 05:44:10;;;;;;;29.10;15.38;;;;;;;15.58;62.07;101658.53;5004256;28;20152;-60
2022/05/12 05:46:35;;;;;;;26.83;14.88;;;;;;;15.64;62.11;101665.88;5009759;28;20032;-61
2022/05/12 05:49:01;;;;;;;25.92;15.43;;;;;;;15.70;62.06;101675.16;5009760;28;20045;-61
2022/05/12 05:54:12;;;;;;;24.35;15.63;;;;;;;15.86;62.13;101690.13;5011362;28;20091;-61
2022/05/12 05:56:38;;;;;;;30.13;16.00;;;;;;;15.86;61.78;101696.56;5008799;28;20034;-61
2022/05/12 05:59:03;;;;;;;26.15;16.50;;;;;;;15.94;61.86;101703.63;5003284;28;20050;-61
2022/05/12 06:01:29;;;;;;;28.45;16.50;;;;;;;15.99;61.95;101697.22;5010994;28;20050;-61
2022/05/12 06:03:56;;;;;;;24.80;17.45;;;;;;;16.04;61.70;101714.06;5010390;28;20038;-61
2022/05/12 06:06:27;;;;;;;25.77;17.75;;;;;;;16.00;61.83;101710.13;5026958;28;20041;-61
2022/05/12 06:08:53;;;;;;;32.22;17.52;;;;;;;16.13;61.87;101716.09;4996456;28;20037;-60
2022/05/12 06:11:18;;;;;;;27.02;17.10;;;;;;;16.23;61.22;101714.47;5007800;28;20034;-60
2022/05/12 06:13:44;;;;;;;27.83;17.85;;;;;;;16.21;61.69;101706.34;5010518;28;20483;-60
2022/05/12 06:16:09;;;;;;;25.50;15.77;;;;;;;16.45;60.71;101713.22;5008340;28;20025;-60
2022/05/12 06:18:36;;;;;;;26.58;17.85;;;;;;;16.43;61.26;101709.84;5009055;28;20107;-61
2022/05/12 06:21:04;;;;;;;26.48;16.85;;;;;;;16.51;61.06;101716.91;5012043;28;20123;-61
2022/05/12 06:23:29;;;;;;;27.88;16.92;;;;;;;16.63;60.46;101725.94;5011311;28;20377;-61
2022/05/12 06:25:55;;;;;;;29.10;15.57;;;;;;;16.66;60.08;101725.38;5013297;28;20034;-61
2022/05/12 06:28:20;;;;;;;27.38;17.30;;;;;;;16.72;60.38;101731.00;5009394;28;20033;-59
2022/05/12 06:30:45;;;;;;;28.58;16.92;;;;;;;16.69;60.48;101730.44;5006221;28;20082;-59
2022/05/12 06:33:18;;;;;;;27.23;17.58;;;;;;;16.70;60.44;101736.88;5011447;28;20026;-60
2022/05/12 06:35:48;;;;;;;28.30;17.70;;;;;;;16.82;60.15;101734.75;5011289;28;20116;-62
2022/05/12 06:38:13;;;;;;;26.75;16.75;;;;;;;16.83;60.34;101739.22;5010749;28;20034;-60
2022/05/12 06:40:39;;;;;;;27.90;17.20;;;;;;;16.97;59.49;101744.31;5010159;28;20036;-61
2022/05/12 06:43:07;;;;;;;24.80;16.83;;;;;;;16.91;59.42;101743.47;5008764;28;20037;-59
2022/05/12 06:45:33;;;;;;;25.73;17.50;;;;;;;16.96;59.14;101746.28;5010982;28;20528;-60
2022/05/12 06:47:58;;;;;;;28.50;17.38;;;;;;;17.04;58.71;101745.75;5009790;28;20046;-61
2022/05/12 06:50:28;;;;;;;30.85;17.70;;;;;;;16.99;58.71;101758.94;4999775;28;20549;-61
2022/05/12 06:52:53;;;;;;;26.50;17.88;;;;;;;16.92;58.80;101757.19;5002149;28;20065;-61
2022/05/12 06:55:24;;;;;;;26.38;16.23;;;;;;;16.98;58.46;101760.03;5009522;28;20488;-59
2022/05/12 06:57:49;;;;;;;23.63;14.95;;;;;;;16.95;58.15;101761.44;5000981;28;20029;-60
2022/05/12 07:00:16;;;;;;;23.65;17.25;;;;;;;16.89;57.68;101763.34;5006543;28;20565;-60
2022/05/12 07:02:46;;;;;;;25.40;16.83;;;;;;;16.97;57.86;101761.97;5007596;28;20068;-60
2022/05/12 07:05:13;;;;;;;24.60;16.00;;;;;;;16.99;57.23;101768.19;5009466;28;20805;-60
2022/05/12 07:07:40;;;;;;;19.15;14.43;;;;;;;17.10;56.93;101769.06;5008457;28;20092;-60
2022/05/12 07:10:05;;;;;;;23.50;16.65;;;;;;;17.20;56.26;101779.47;5008263;28;20065;-60
2022/05/12 07:12:31;;;;;;;25.58;15.77;;;;;;;17.23;55.93;101767.72;5007611;28;20064;-62
2022/05/12 07:14:56;;;;;;;18.58;14.20;;;;;;;17.39;55.54;101773.09;5009762;28;20101;-60
2022/05/12 07:17:23;;;;;;;22.85;15.40;;;;;;;17.46;55.58;101772.00;5011588;28;20100;-61
2022/05/12 07:19:49;;;;;;;18.83;14.23;;;;;;;17.62;55.10;101765.28;5008537;28;20025;-61
2022/05/12 07:27:42;;;;;;;19.65;13.40;;;;;;;17.98;54.00;101776.56;5010181;28;20053;-60
2022/05/12 07:30:08;;;;;;;18.23;12.50;;;;;;;17.99;54.08;101783.88;5011192;28;20026;-60
2022/05/12 07:32:35;;;;;;;21.38;14.90;;;;;;;17.94;53.91;101784.72;5010541;28;20033;-61
2022/05/12 07:35:00;;;;;;;21.08;13.27;;;;;;;17.81;52.79;101788.94;5007772;28;20095;-61
2022/05/12 07:37:26;;;;;;;18.75;13.10;;;;;;;17.68;53.12;101786.59;5011445;28;20113;-60
2022/05/12 07:39:51;;;;;;;17.83;13.45;;;;;;;17.72;53.17;101787.72;5010871;28;20121;-61
2022/05/12 07:42:16;;;;;;;21.27;14.65;;;;;;;17.89;53.44;101793.97;5008030;28;20030;-62
2022/05/12 07:44:41;;;;;;;19.83;12.90;;;;;;;17.99;53.36;101798.75;5011874;28;20443;-60
2022/05/12 07:47:10;;;;;;;20.35;11.88;;;;;;;18.08;51.82;101799.06;5008750;28;20049;-62
2022/05/12 07:49:37;;;;;;;17.98;10.68;;;;;;;18.12;50.97;101798.22;5008622;28;20444;-60
2022/05/12 07:52:04;;;;;;;14.98;10.63;;;;;;;18.25;50.59;101802.41;5012198;28;20030;-61
2022/05/12 07:54:29;;;;;;;16.67;10.15;;;;;;;18.40;50.43;101793.97;5012820;28;20375;-61
2022/05/12 07:56:55;;;;;;;21.23;11.90;;;;;;;18.46;50.60;101799.59;5011517;28;20386;-60
2022/05/12 07:59:21;;;;;;;18.52;11.35;;;;;;;18.46;50.80;101796.78;5012074;28;20034;-61
2022/05/12 08:01:47;;;;;;;15.75;10.32;;;;;;;18.61;49.20;101800.41;5023518;28;20041;-61
2022/05/12 08:04:12;;;;;;;16.67;10.18;;;;;;;18.68;48.79;101802.09;5030896;28;20045;-61
2022/05/12 08:06:39;;;;;;;13.25;8.95;;;;;;;18.82;48.74;101806.00;5030532;28;20025;-61
2022/05/12 08:09:05;;;;;;;17.70;11.20;;;;;;;18.95;48.42;101810.22;5031371;28;20120;-61
2022/05/12 08:11:31;;;;;;;16.65;10.52;;;;;;;19.00;47.99;101810.19;5030985;28;20956;-61
2022/05/12 08:13:56;;;;;;;15.43;9.95;;;;;;;18.89;47.28;101809.34;5016522;28;20037;-61
2022/05/12 08:16:22;;;;;;;14.32;9.15;;;;;;;18.81;47.12;101810.78;5011029;28;20041;-62
2022/05/12 08:18:49;;;;;;;13.27;9.23;;;;;;;18.85;46.86;101811.91;5012168;28;20036;-61
2022/05/12 08:21:15;;;;;;;15.68;10.75;;;;;;;18.84;46.96;101813.03;5011615;28;20652;-61
2022/05/12 08:23:41;;;;;;;14.85;10.57;;;;;;;18.84;47.07;101810.22;5011132;28;20108;-61
2022/05/12 08:26:07;;;;;;;17.52;9.20;;;;;;;18.86;47.20;101813.59;5012017;28;20034;-61
2022/05/12 08:28:33;;;;;;;15.40;7.40;;;;;;;19.03;46.29;101806.81;5011523;28;20112;-61
2022/05/12 08:30:58;;;;;;;11.43;8.05;;;;;;;19.11;45.82;101806.19;5011194;28;20025;-61
2022/05/12 08:33:24;;;;;;;13.38;8.98;;;;;;;19.20;45.80;101812.91;5010179;28;20042;-61
2022/05/12 08:35:50;;;;;;;12.80;7.75;;;;;;;19.19;44.96;101814.03;5011719;28;20034;-61
2022/05/12 08:38:17;;;;;;;12.35;7.07;;;;;;;19.21;44.59;101811.78;5010312;28;20072;-61
2022/05/12 08:41:13;;;;;;;13.00;7.10;;;;;;;19.30;45.78;101807.25;5011498;28;20037;-62
2022/05/12 08:43:44;;;;;;;8.48;6.00;;;;;;;19.45;44.17;101808.28;5011330;28;20433;-62
2022/05/12 08:46:14;;;;;;;9.07;5.97;;;;;;;19.56;43.82;101816.38;5010585;28;20049;-61
2022/05/12 08:48:47;;;;;;;11.45;5.90;;;;;;;19.41;43.53;101815.63;5010646;28;20030;-61
2022/05/12 08:51:34;;;;;;;11.60;5.18;;;;;;;19.36;44.36;101816.50;5011086;28;20083;-61
2022/05/12 08:54:03;;;;;;;13.48;4.22;;;;;;;19.20;42.03;101815.72;5011000;28;20034;-61
2022/05/12 08:56:29;;;;;;;9.18;3.95;;;;;;;19.17;41.43;101819.09;5010894;28;20064;-61
2022/05/12 08:58:56;;;;;;;8.45;4.13;;;;;;;19.38;41.12;101817.91;4999519;28;20034;-61
2022/05/12 09:01:22;;;;;;;6.60;3.75;;;;;;;19.41;40.94;101818.44;4993409;28;20027;-61
2022/05/12 09:04:21;;;;;;;7.20;2.90;;;;;;;19.45;41.44;101823.19;5011140;28;20072;-61
2022/05/12 09:07:07;;;;;;;8.07;3.45;;;;;;;19.47;41.38;101825.75;5010612;28;20034;-61
2022/05/12 09:10:05;;;;;;;9.77;4.10;;;;;;;19.50;41.50;101825.16;5010583;28;20091;-61
2022/05/12 09:12:35;;;;;;;7.95;3.92;;;;;;;19.41;41.22;101830.53;4990797;28;20121;-61
2022/05/12 09:15:20;;;;;;;10.05;5.97;;;;;;;19.54;42.60;101829.09;4994556;28;20040;-61
2022/05/12 09:17:56;;;;;;;13.50;5.95;;;;;;;19.65;42.11;101827.06;4991370;28;20038;-61
2022/05/12 09:20:23;;;;;;;9.93;5.47;;;;;;;19.74;41.25;101825.34;4990804;28;20145;-61
2022/05/12 09:22:48;;;;;;;8.45;5.93;;;;;;;19.83;40.25;101821.59;4991305;28;20512;-61
2022/05/12 09:25:29;;;;;;;10.95;6.18;;;;;;;20.00;40.73;101837.25;4997853;28;20038;-61
2022/05/12 09:27:58;;;;;;;7.15;5.10;;;;;;;19.98;39.79;101822.63;5010306;28;20087;-61
2022/05/12 09:30:32;;;;;;;9.13;5.10;;;;;;;20.02;40.12;101823.72;5010429;28;20037;-61
2022/05/12 09:32:59;;;;;;;9.40;5.28;;;;;;;20.04;39.15;101827.09;4997540;28;20393;-62
2022/05/12 09:35:27;;;;;;;9.05;4.50;;;;;;;19.86;38.30;101829.47;4990122;28;20097;-61
2022/05/12 09:37:53;;;;;;;9.98;5.47;;;;;;;19.65;39.38;101830.75;4997968;28;20030;-61
2022/05/12 09:40:37;;;;;;;10.93;6.25;;;;;;;19.61;40.50;101829.63;5013294;28;20045;-61
2022/05/12 09:43:18;;;;;;;10.55;6.00;;;;;;;19.66;40.31;101820.31;5009090;28;20124;-61
2022/05/12 09:45:59;;;;;;;8.57;4.60;;;;;;;19.83;38.54;101824.41;5010844;28;20061;-61
2022/05/12 09:48:27;;;;;;;9.48;4.47;;;;;;;19.94;38.01;101821.53;5009797;28;20371;-61
2022/05/12 09:50:53;;;;;;;8.15;5.57;;;;;;;20.06;38.28;101819.19;5010605;28;20033;-61
2022/05/12 09:53:30;;;;;;;13.57;5.45;;;;;;;20.19;39.20;101823.31;5010151;28;20337;-61
2022/05/12 09:56:08;;;;;;;9.82;5.40;;;;;;;20.30;38.74;101816.44;5009242;28;20585;-61
2022/05/12 09:58:37;;;;;;;5.50;3.72;;;;;;;20.32;37.79;101820.66;5012079;28;20485;-61
2022/05/12 10:01:12;;;;;;;8.00;4.05;;;;;;;20.21;36.92;101813.44;5014289;28;20037;-61
2022/05/12 10:09:19;;;;;;;5.95;2.90;;;;;;;20.26;36.29;101812.53;5013159;28;20045;-60
2022/05/12 10:11:47;;;;;;;6.10;2.42;;;;;;;20.30;36.32;101814.47;5014495;28;20086;-60
2022/05/12 10:14:39;;;;;;;5.00;1.88;;;;;;;20.33;36.47;101813.03;5013902;28;20029;-60
2022/05/12 10:17:24;;;;;;;6.20;2.05;;;;;;;20.27;35.90;101817.88;4983523;28;20073;-60
2022/05/12 10:19:51;;;;;;;6.85;2.90;;;;;;;20.14;35.36;101820.53;4994491;28;20026;-60
2022/05/12 10:22:22;;;;;;;9.60;3.58;;;;;;;20.04;36.36;101822.31;4994262;28;20041;-60
2022/05/12 10:25:23;;;;;;;6.80;4.20;;;;;;;19.97;37.98;101820.97;4993698;28;20053;-61
2022/05/12 10:28:14;;;;;;;5.93;4.20;;;;;;;19.87;38.30;101821.84;4977634;28;20046;-60
2022/05/12 10:30:59;;;;;;;8.33;3.83;;;;;;;19.82;38.09;101821.91;5003898;28;20110;-62
2022/05/12 10:33:51;;;;;;;5.68;3.30;;;;;;;19.84;37.85;101812.00;5009913;28;20125;-62
2022/05/12 10:36:17;;;;;;;;;;;;;;;19.95;38.03;101823.22;5006691;28;20034;-63
2022/05/12 10:39:05;;;;;;;6.97;3.75;;;;;;;19.94;37.89;101830.00;5011579;28;19924;-62
2022/05/12 10:41:36;;;;;;;7.10;3.80;;;;;;;20.12;37.23;101815.19;4981800;28;20045;-61
2022/05/12 10:44:14;;;;;;;6.20;2.88;;;;;;;20.17;36.91;101815.16;5010691;28;20040;-61
2022/05/12 10:47:12;;;;;;;6.93;3.13;;;;;;;20.14;36.59;101815.75;5011033;28;20056;-61
2022/05/12 10:49:55;;;;;;;7.43;3.25;;;;;;;19.99;36.18;101804.59;4970542;28;20060;-62
2022/05/12 10:52:47;;;;;;;5.07;2.40;;;;;;;19.96;36.76;101808.81;5010492;28;20103;-62
2022/05/12 10:55:23;;;;;;;5.18;2.60;;;;;;;20.00;35.86;101803.44;5005875;28;20033;-63
2022/05/12 10:57:57;;;;;;;6.60;2.60;;;;;;;20.03;36.17;101812.16;5008335;28;20037;-63
2022/05/12 11:00:48;;;;;;;3.33;2.03;;;;;;;20.07;35.39;101809.59;5010727;28;20042;-63
2022/05/12 11:03:27;;;;;;;7.13;3.80;;;;;;;19.99;34.93;101819.50;5011257;28;20080;-63
2022/05/12 11:06:00;;;;;;;7.50;3.85;;;;;;;19.93;36.05;101815.06;5007144;28;20476;-64
2022/05/12 11:08:32;;;;;;;7.18;3.80;;;;;;;20.01;36.27;101805.16;5011203;28;20505;-63
2022/05/12 11:11:01;;;;;;;8.52;4.45;;;;;;;20.11;36.50;101805.88;4996253;28;20041;-62
2022/05/12 11:13:49;;;;;;;6.50;4.00;;;;;;;20.35;36.47;101794.69;5009197;28;20033;-63
2022/05/12 11:16:19;;;;;;;12.15;3.80;;;;;;;20.35;35.67;101794.69;5009831;28;20030;-62
2022/05/12 11:19:03;;;;;;;6.72;3.08;;;;;;;20.31;35.94;101799.22;5011916;28;20034;-63
2022/05/12 11:21:30;;;;;;;6.00;3.53;;;;;;;20.28;35.31;101797.03;5009358;28;20026;-63
2022/05/12 11:24:13;;;;;;;8.82;3.58;;;;;;;20.34;36.15;101798.66;5012022;28;20100;-63
2022/05/12 11:26:41;;;;;;;;;;;;;;;20.49;36.88;101794.88;5009451;28;20026;-62
2022/05/12 11:29:50;;;;;;;6.75;3.40;;;;;;;20.47;35.48;101796.25;5009276;28;19923;-64
2022/05/12 11:32:45;;;;;;;7.25;4.30;;;;;;;20.56;35.84;101786.91;5008804;28;20041;-63
2022/05/12 11:35:32;;;;;;;6.82;3.90;;;;;;;20.56;36.09;101794.53;5008315;28;20564;-64
2022/05/12 11:38:03;;;;;;;9.40;3.20;;;;;;;20.64;34.41;101790.22;5008651;28;20503;-62
2022/05/12 11:40:41;;;;;;;7.13;3.13;;;;;;;20.71;34.57;101790.69;5011956;28;20026;-63
2022/05/12 11:46:26;;;;;;;7.13;2.58;;;;;;;20.77;34.66;101784.69;5012439;28;20188;-62
2022/05/12 11:48:59;;;;;;;5.93;2.60;;;;;;;20.67;34.09;101783.97;5003773;28;20029;-61